Portada
METAR-TAF:

METAR-TAF

Aeroports :

Varadero, Cuba

latitud: 23-08N, longitud: 081-17W, altitud: 3 m

Observació

L'informe es va fer fa 17 minuts, a les 06:50 UTC
Vent 1 kt amb direcció variable
Temperatura 21°C
Humitat 94%
Pressió 1016 hPa
Visibilitat: 9000 m
Cel clar

METAR: MUVR 080650Z VRB01KT 9000 SKC 21/20 Q1016

Hora: 03:07 (07:07 UTC)

Pronòstic

L'informe es va fer fa 2 hores i 7 minuts, a les 05:00 UTC
Pronòstic vàlid del 08 a les 06 UTC al 09 a les 06 UTC
Vent 3 kt amb direcció variable
Visibilitat: 9000 m
Escasses núvols a una alçada de 2000 ft
Temporalment
l' 08 a les 10 UTC al 08 a les 13 UTC
Visibilitat: 5000 m
boirina
Evolucionant progressivament
l' 08 a les 15 UTC al 08 a les 17 UTC
Vent 8 kt del Nord-Est
Evolucionant progressivament
l' 09 a les 01 UTC al 09 a les 03 UTC
Vent 3 kt amb direcció variable

TAF: MUVR 080500Z 0806/0906 VRB03KT 9000 FEW020 TEMPO 0810/0813 5000 BR BECMG 0815/0817 04008KT BECMG 0901/0903 VRB03KT

Observacions i pronòstics meteorològics de més de 4000 aeroports (METAR i TAF).

Les estacions disponibles són els punts grocs i vermells al mapa.

Posi el ratolí al punt desitjat per veure el nom de l'estació.

Feu clic per veure les observacions i els pronòstics meteorològics.

Per canviar el mapa: feu clic els botons verds amb una creu de color negre per apropar; al botó verd amb un guió per allunyar la imatge; o en les fletxes verdes per a mapes adjacents.


METAR-TAF: